sensor_id;sensor_type;location;lat;lon;timestamp;P1;durP1;ratioP1;P2;durP2;ratioP2
25936;SDS011;13733;51.178;4.450;2022-07-29T00:00:07;7.85;;;2.58;;
25936;SDS011;13733;51.178;4.450;2022-07-29T00:02:34;6.57;;;2.40;;
25936;SDS011;13733;51.178;4.450;2022-07-29T00:05:01;8.05;;;2.90;;
25936;SDS011;13733;51.178;4.450;2022-07-29T00:07:28;6.15;;;2.33;;
25936;SDS011;13733;51.178;4.450;2022-07-29T00:09:54;6.63;;;2.63;;
25936;SDS011;13733;51.178;4.450;2022-07-29T00:12:20;7.32;;;2.30;;
25936;SDS011;13733;51.178;4.450;2022-07-29T00:14:47;4.40;;;2.67;;
25936;SDS011;13733;51.178;4.450;2022-07-29T00:17:13;7.22;;;3.00;;
25936;SDS011;13733;51.178;4.450;2022-07-29T00:19:39;7.85;;;3.20;;
25936;SDS011;13733;51.178;4.450;2022-07-29T00:22:05;5.53;;;2.58;;
25936;SDS011;13733;51.178;4.450;2022-07-29T00:24:31;6.45;;;2.67;;
25936;SDS011;13733;51.178;4.450;2022-07-29T00:26:56;6.03;;;2.58;;
25936;SDS011;13733;51.178;4.450;2022-07-29T00:29:22;5.13;;;2.83;;
25936;SDS011;13733;51.178;4.450;2022-07-29T00:31:48;5.35;;;2.80;;
25936;SDS011;13733;51.178;4.450;2022-07-29T00:34:14;4.03;;;2.38;;
25936;SDS011;13733;51.178;4.450;2022-07-29T00:36:59;6.82;;;2.53;;
25936;SDS011;13733;51.178;4.450;2022-07-29T00:39:24;3.42;;;2.50;;
25936;SDS011;13733;51.178;4.450;2022-07-29T00:41:50;6.53;;;2.50;;
25936;SDS011;13733;51.178;4.450;2022-07-29T00:44:17;6.15;;;2.78;;
25936;SDS011;13733;51.178;4.450;2022-07-29T00:46:43;5.40;;;2.30;;
25936;SDS011;13733;51.178;4.450;2022-07-29T00:49:08;7.65;;;2.65;;
25936;SDS011;13733;51.178;4.450;2022-07-29T00:51:37;7.43;;;2.30;;
25936;SDS011;13733;51.178;4.450;2022-07-29T00:54:04;10.90;;;2.45;;
25936;SDS011;13733;51.178;4.450;2022-07-29T00:56:31;9.23;;;2.35;;
25936;SDS011;13733;51.178;4.450;2022-07-29T00:58:57;4.45;;;2.40;;
25936;SDS011;13733;51.178;4.450;2022-07-29T01:01:24;6.28;;;2.67;;
25936;SDS011;13733;51.178;4.450;2022-07-29T01:03:50;4.85;;;2.45;;
25936;SDS011;13733;51.178;4.450;2022-07-29T01:06:19;4.95;;;2.40;;
25936;SDS011;13733;51.178;4.450;2022-07-29T01:08:45;4.18;;;2.60;;
25936;SDS011;13733;51.178;4.450;2022-07-29T01:11:13;3.50;;;2.20;;
25936;SDS011;13733;51.178;4.450;2022-07-29T01:13:42;6.45;;;2.47;;
25936;SDS011;13733;51.178;4.450;2022-07-29T01:16:10;9.13;;;2.70;;
25936;SDS011;13733;51.178;4.450;2022-07-29T01:18:46;8.10;;;2.53;;
25936;SDS011;13733;51.178;4.450;2022-07-29T01:27:04;5.22;;;2.33;;
25936;SDS011;13733;51.178;4.450;2022-07-29T01:29:53;5.68;;;2.42;;
25936;SDS011;13733;51.178;4.450;2022-07-29T01:32:24;6.25;;;2.78;;
25936;SDS011;13733;51.178;4.450;2022-07-29T01:34:54;5.07;;;2.42;;
25936;SDS011;13733;51.178;4.450;2022-07-29T01:40:27;6.90;;;2.50;;
25936;SDS011;13733;51.178;4.450;2022-07-29T01:43:14;5.45;;;2.50;;
25936;SDS011;13733;51.178;4.450;2022-07-29T01:46:08;8.73;;;2.80;;
25936;SDS011;13733;51.178;4.450;2022-07-29T01:54:07;8.35;;;2.70;;
25936;SDS011;13733;51.178;4.450;2022-07-29T01:56:45;5.03;;;2.50;;
25936;SDS011;13733;51.178;4.450;2022-07-29T01:59:14;10.65;;;2.65;;
25936;SDS011;13733;51.178;4.450;2022-07-29T02:01:42;4.05;;;2.47;;
25936;SDS011;13733;51.178;4.450;2022-07-29T02:04:11;5.38;;;2.40;;
25936;SDS011;13733;51.178;4.450;2022-07-29T02:06:38;4.72;;;2.40;;
25936;SDS011;13733;51.178;4.450;2022-07-29T02:09:05;6.63;;;2.35;;
25936;SDS011;13733;51.178;4.450;2022-07-29T02:11:33;8.60;;;2.80;;
25936;SDS011;13733;51.178;4.450;2022-07-29T02:14:02;5.00;;;2.50;;
25936;SDS011;13733;51.178;4.450;2022-07-29T02:16:30;4.72;;;2.60;;
25936;SDS011;13733;51.178;4.450;2022-07-29T02:18:58;7.00;;;2.30;;
25936;SDS011;13733;51.178;4.450;2022-07-29T02:21:26;4.35;;;2.22;;
25936;SDS011;13733;51.178;4.450;2022-07-29T02:23:55;5.55;;;2.28;;
25936;SDS011;13733;51.178;4.450;2022-07-29T02:26:24;5.97;;;2.58;;
25936;SDS011;13733;51.178;4.450;2022-07-29T02:28:52;5.32;;;2.50;;
25936;SDS011;13733;51.178;4.450;2022-07-29T02:31:21;9.02;;;2.40;;
25936;SDS011;13733;51.178;4.450;2022-07-29T02:33:51;7.60;;;2.10;;
25936;SDS011;13733;51.178;4.450;2022-07-29T02:36:17;5.75;;;2.30;;
25936;SDS011;13733;51.178;4.450;2022-07-29T02:38:46;8.23;;;2.20;;
25936;SDS011;13733;51.178;4.450;2022-07-29T02:46:50;4.13;;;2.10;;
25936;SDS011;13733;51.178;4.450;2022-07-29T03:00:53;4.72;;;2.03;;
25936;SDS011;13733;51.178;4.450;2022-07-29T03:03:28;8.43;;;2.15;;
25936;SDS011;13733;51.178;4.450;2022-07-29T03:05:57;5.97;;;2.25;;
25936;SDS011;13733;51.178;4.450;2022-07-29T03:08:26;5.20;;;2.10;;
25936;SDS011;13733;51.178;4.450;2022-07-29T03:10:53;6.60;;;2.28;;
25936;SDS011;13733;51.178;4.450;2022-07-29T03:13:20;8.93;;;2.30;;
25936;SDS011;13733;51.178;4.450;2022-07-29T03:15:46;4.38;;;2.10;;
25936;SDS011;13733;51.178;4.450;2022-07-29T03:18:12;6.95;;;2.10;;
25936;SDS011;13733;51.178;4.450;2022-07-29T03:20:40;3.50;;;1.95;;
25936;SDS011;13733;51.178;4.450;2022-07-29T03:23:07;4.10;;;2.15;;
25936;SDS011;13733;51.178;4.450;2022-07-29T03:25:33;7.68;;;2.40;;
25936;SDS011;13733;51.178;4.450;2022-07-29T03:27:59;6.28;;;2.00;;
25936;SDS011;13733;51.178;4.450;2022-07-29T03:30:25;5.13;;;2.28;;
25936;SDS011;13733;51.178;4.450;2022-07-29T03:32:51;3.30;;;2.13;;
25936;SDS011;13733;51.178;4.450;2022-07-29T03:35:19;7.80;;;2.10;;
25936;SDS011;13733;51.178;4.450;2022-07-29T03:37:45;4.28;;;2.05;;
25936;SDS011;13733;51.178;4.450;2022-07-29T03:40:12;3.97;;;2.15;;
25936;SDS011;13733;51.178;4.450;2022-07-29T03:42:42;5.80;;;2.20;;
25936;SDS011;13733;51.178;4.450;2022-07-29T03:45:10;5.38;;;2.42;;
25936;SDS011;13733;51.178;4.450;2022-07-29T03:47:40;6.75;;;2.22;;
25936;SDS011;13733;51.178;4.450;2022-07-29T03:50:11;7.78;;;2.40;;
25936;SDS011;13733;51.178;4.450;2022-07-29T03:52:39;5.53;;;2.65;;
25936;SDS011;13733;51.178;4.450;2022-07-29T03:55:06;4.93;;;2.20;;
25936;SDS011;13733;51.178;4.450;2022-07-29T03:57:33;3.97;;;1.92;;
25936;SDS011;13733;51.178;4.450;2022-07-29T04:00:02;5.88;;;2.22;;
25936;SDS011;13733;51.178;4.450;2022-07-29T04:02:29;5.05;;;2.20;;
25936;SDS011;13733;51.178;4.450;2022-07-29T04:04:56;5.05;;;2.13;;
25936;SDS011;13733;51.178;4.450;2022-07-29T04:07:22;7.15;;;2.83;;
25936;SDS011;13733;51.178;4.450;2022-07-29T04:09:48;5.28;;;2.38;;
25936;SDS011;13733;51.178;4.450;2022-07-29T04:12:14;7.90;;;2.35;;
25936;SDS011;13733;51.178;4.450;2022-07-29T04:14:41;4.50;;;2.25;;
25936;SDS011;13733;51.178;4.450;2022-07-29T04:17:06;4.28;;;2.40;;
25936;SDS011;13733;51.178;4.450;2022-07-29T04:19:32;6.00;;;2.45;;
25936;SDS011;13733;51.178;4.450;2022-07-29T04:22:00;8.10;;;2.65;;
25936;SDS011;13733;51.178;4.450;2022-07-29T04:24:26;6.15;;;2.35;;
25936;SDS011;13733;51.178;4.450;2022-07-29T04:26:52;6.43;;;2.20;;
25936;SDS011;13733;51.178;4.450;2022-07-29T04:29:18;9.13;;;2.47;;
25936;SDS011;13733;51.178;4.450;2022-07-29T04:31:44;5.95;;;2.40;;
25936;SDS011;13733;51.178;4.450;2022-07-29T04:34:10;5.75;;;2.33;;
25936;SDS011;13733;51.178;4.450;2022-07-29T04:36:36;6.07;;;2.70;;
25936;SDS011;13733;51.178;4.450;2022-07-29T04:39:02;7.53;;;2.28;;
25936;SDS011;13733;51.178;4.450;2022-07-29T04:41:28;10.07;;;2.53;;
25936;SDS011;13733;51.178;4.450;2022-07-29T04:43:54;4.55;;;2.40;;
25936;SDS011;13733;51.178;4.450;2022-07-29T04:46:20;7.05;;;2.40;;
25936;SDS011;13733;51.178;4.450;2022-07-29T04:48:46;5.10;;;2.40;;
25936;SDS011;13733;51.178;4.450;2022-07-29T04:51:13;6.20;;;2.67;;
25936;SDS011;13733;51.178;4.450;2022-07-29T04:53:41;5.55;;;2.30;;
25936;SDS011;13733;51.178;4.450;2022-07-29T04:56:07;6.88;;;2.80;;
25936;SDS011;13733;51.178;4.450;2022-07-29T04:58:36;5.82;;;2.20;;
25936;SDS011;13733;51.178;4.450;2022-07-29T05:01:03;6.45;;;2.72;;
25936;SDS011;13733;51.178;4.450;2022-07-29T05:03:29;4.82;;;2.60;;
25936;SDS011;13733;51.178;4.450;2022-07-29T05:05:54;4.53;;;2.88;;
25936;SDS011;13733;51.178;4.450;2022-07-29T05:08:20;5.18;;;2.33;;
25936;SDS011;13733;51.178;4.450;2022-07-29T05:10:46;6.28;;;2.72;;
25936;SDS011;13733;51.178;4.450;2022-07-29T05:13:12;4.10;;;2.47;;
25936;SDS011;13733;51.178;4.450;2022-07-29T05:15:38;4.50;;;2.50;;
25936;SDS011;13733;51.178;4.450;2022-07-29T05:18:03;6.75;;;2.85;;
25936;SDS011;13733;51.178;4.450;2022-07-29T05:20:30;7.47;;;2.60;;
25936;SDS011;13733;51.178;4.450;2022-07-29T05:22:56;5.13;;;2.45;;
25936;SDS011;13733;51.178;4.450;2022-07-29T05:25:23;4.53;;;2.53;;
25936;SDS011;13733;51.178;4.450;2022-07-29T05:27:50;5.75;;;2.80;;
25936;SDS011;13733;51.178;4.450;2022-07-29T05:30:16;6.15;;;2.47;;
25936;SDS011;13733;51.178;4.450;2022-07-29T05:32:42;8.05;;;2.58;;
25936;SDS011;13733;51.178;4.450;2022-07-29T05:35:08;6.25;;;2.85;;
25936;SDS011;13733;51.178;4.450;2022-07-29T05:37:34;4.43;;;2.97;;
25936;SDS011;13733;51.178;4.450;2022-07-29T05:40:00;5.85;;;2.75;;
25936;SDS011;13733;51.178;4.450;2022-07-29T05:42:27;3.22;;;2.38;;
25936;SDS011;13733;51.178;4.450;2022-07-29T05:44:54;5.32;;;2.78;;
25936;SDS011;13733;51.178;4.450;2022-07-29T05:47:20;5.82;;;2.83;;
25936;SDS011;13733;51.178;4.450;2022-07-29T05:49:46;7.00;;;2.50;;
25936;SDS011;13733;51.178;4.450;2022-07-29T05:52:12;6.93;;;2.75;;
25936;SDS011;13733;51.178;4.450;2022-07-29T05:54:38;6.53;;;2.83;;
25936;SDS011;13733;51.178;4.450;2022-07-29T05:57:04;7.38;;;2.70;;
25936;SDS011;13733;51.178;4.450;2022-07-29T05:59:31;6.35;;;2.85;;
25936;SDS011;13733;51.178;4.450;2022-07-29T06:02:01;4.95;;;2.45;;
25936;SDS011;13733;51.178;4.450;2022-07-29T06:04:27;8.88;;;2.90;;
25936;SDS011;13733;51.178;4.450;2022-07-29T06:06:53;5.47;;;3.25;;
25936;SDS011;13733;51.178;4.450;2022-07-29T06:09:18;4.13;;;2.53;;
25936;SDS011;13733;51.178;4.450;2022-07-29T06:11:46;8.20;;;2.58;;
25936;SDS011;13733;51.178;4.450;2022-07-29T06:14:13;6.68;;;2.95;;
25936;SDS011;13733;51.178;4.450;2022-07-29T06:16:40;7.38;;;2.88;;
25936;SDS011;13733;51.178;4.450;2022-07-29T06:19:06;6.05;;;2.80;;
25936;SDS011;13733;51.178;4.450;2022-07-29T06:21:31;9.60;;;3.10;;
25936;SDS011;13733;51.178;4.450;2022-07-29T06:23:58;6.97;;;2.70;;
25936;SDS011;13733;51.178;4.450;2022-07-29T06:26:24;4.72;;;2.92;;
25936;SDS011;13733;51.178;4.450;2022-07-29T06:28:50;11.52;;;2.75;;
25936;SDS011;13733;51.178;4.450;2022-07-29T06:31:16;7.25;;;3.20;;
25936;SDS011;13733;51.178;4.450;2022-07-29T06:33:42;6.90;;;3.00;;
25936;SDS011;13733;51.178;4.450;2022-07-29T06:36:07;7.25;;;3.47;;
25936;SDS011;13733;51.178;4.450;2022-07-29T06:38:35;9.43;;;3.35;;
25936;SDS011;13733;51.178;4.450;2022-07-29T06:41:03;7.25;;;3.08;;
25936;SDS011;13733;51.178;4.450;2022-07-29T06:43:35;4.90;;;3.20;;
25936;SDS011;13733;51.178;4.450;2022-07-29T06:46:03;7.28;;;2.97;;
25936;SDS011;13733;51.178;4.450;2022-07-29T06:48:31;7.78;;;3.40;;
25936;SDS011;13733;51.178;4.450;2022-07-29T06:50:58;7.13;;;3.40;;
25936;SDS011;13733;51.178;4.450;2022-07-29T06:53:25;7.60;;;3.40;;
25936;SDS011;13733;51.178;4.450;2022-07-29T06:55:51;6.07;;;2.92;;
25936;SDS011;13733;51.178;4.450;2022-07-29T06:58:17;8.02;;;3.28;;
25936;SDS011;13733;51.178;4.450;2022-07-29T07:00:54;7.45;;;3.00;;
25936;SDS011;13733;51.178;4.450;2022-07-29T07:03:21;9.90;;;3.50;;
25936;SDS011;13733;51.178;4.450;2022-07-29T07:05:47;9.48;;;3.72;;
25936;SDS011;13733;51.178;4.450;2022-07-29T07:08:13;7.25;;;3.65;;
25936;SDS011;13733;51.178;4.450;2022-07-29T07:10:41;9.20;;;3.50;;
25936;SDS011;13733;51.178;4.450;2022-07-29T07:13:07;7.18;;;3.70;;
25936;SDS011;13733;51.178;4.450;2022-07-29T07:15:35;10.52;;;3.55;;
25936;SDS011;13733;51.178;4.450;2022-07-29T07:18:02;11.38;;;3.45;;
25936;SDS011;13733;51.178;4.450;2022-07-29T07:20:28;8.20;;;3.60;;
25936;SDS011;13733;51.178;4.450;2022-07-29T07:22:54;6.38;;;3.35;;
25936;SDS011;13733;51.178;4.450;2022-07-29T07:25:20;8.40;;;3.20;;
25936;SDS011;13733;51.178;4.450;2022-07-29T07:27:47;8.48;;;3.78;;
25936;SDS011;13733;51.178;4.450;2022-07-29T07:30:13;5.68;;;2.85;;
25936;SDS011;13733;51.178;4.450;2022-07-29T07:32:39;6.82;;;3.08;;
25936;SDS011;13733;51.178;4.450;2022-07-29T07:35:06;5.88;;;2.83;;
25936;SDS011;13733;51.178;4.450;2022-07-29T07:37:32;7.25;;;3.03;;
25936;SDS011;13733;51.178;4.450;2022-07-29T07:39:58;5.90;;;3.03;;
25936;SDS011;13733;51.178;4.450;2022-07-29T07:42:24;8.25;;;3.83;;
25936;SDS011;13733;51.178;4.450;2022-07-29T07:44:50;7.97;;;3.45;;
25936;SDS011;13733;51.178;4.450;2022-07-29T07:47:16;6.43;;;3.33;;
25936;SDS011;13733;51.178;4.450;2022-07-29T07:49:48;8.95;;;2.90;;
25936;SDS011;13733;51.178;4.450;2022-07-29T07:52:19;6.40;;;3.03;;
25936;SDS011;13733;51.178;4.450;2022-07-29T07:54:46;9.68;;;3.25;;
25936;SDS011;13733;51.178;4.450;2022-07-29T07:57:12;5.72;;;2.85;;
25936;SDS011;13733;51.178;4.450;2022-07-29T07:59:38;6.60;;;3.15;;
25936;SDS011;13733;51.178;4.450;2022-07-29T08:02:05;9.00;;;3.00;;
25936;SDS011;13733;51.178;4.450;2022-07-29T08:04:31;7.38;;;3.10;;
25936;SDS011;13733;51.178;4.450;2022-07-29T08:06:57;7.72;;;3.28;;
25936;SDS011;13733;51.178;4.450;2022-07-29T08:09:26;11.80;;;3.40;;
25936;SDS011;13733;51.178;4.450;2022-07-29T08:11:55;9.68;;;2.97;;
25936;SDS011;13733;51.178;4.450;2022-07-29T08:14:21;8.85;;;3.13;;
25936;SDS011;13733;51.178;4.450;2022-07-29T08:16:47;10.00;;;3.05;;
25936;SDS011;13733;51.178;4.450;2022-07-29T08:19:13;7.55;;;3.30;;
25936;SDS011;13733;51.178;4.450;2022-07-29T08:21:39;6.30;;;2.90;;
25936;SDS011;13733;51.178;4.450;2022-07-29T08:24:05;7.40;;;3.17;;
25936;SDS011;13733;51.178;4.450;2022-07-29T08:26:49;5.72;;;2.97;;
25936;SDS011;13733;51.178;4.450;2022-07-29T08:29:15;7.00;;;2.90;;
25936;SDS011;13733;51.178;4.450;2022-07-29T08:31:41;9.15;;;3.05;;
25936;SDS011;13733;51.178;4.450;2022-07-29T08:34:07;5.22;;;2.90;;
25936;SDS011;13733;51.178;4.450;2022-07-29T08:36:33;4.90;;;2.70;;
25936;SDS011;13733;51.178;4.450;2022-07-29T08:38:59;6.20;;;2.60;;
25936;SDS011;13733;51.178;4.450;2022-07-29T08:41:25;10.40;;;2.50;;
25936;SDS011;13733;51.178;4.450;2022-07-29T08:43:51;6.65;;;2.60;;
25936;SDS011;13733;51.178;4.450;2022-07-29T08:46:18;5.07;;;2.40;;
25936;SDS011;13733;51.178;4.450;2022-07-29T08:48:44;9.23;;;2.55;;
25936;SDS011;13733;51.178;4.450;2022-07-29T08:51:14;4.63;;;2.47;;
25936;SDS011;13733;51.178;4.450;2022-07-29T08:53:42;6.97;;;2.58;;
25936;SDS011;13733;51.178;4.450;2022-07-29T08:56:12;5.10;;;2.50;;
25936;SDS011;13733;51.178;4.450;2022-07-29T08:58:43;10.90;;;2.80;;
25936;SDS011;13733;51.178;4.450;2022-07-29T09:01:09;5.80;;;2.30;;
25936;SDS011;13733;51.178;4.450;2022-07-29T09:03:37;8.63;;;2.38;;
25936;SDS011;13733;51.178;4.450;2022-07-29T09:06:04;14.40;;;2.70;;
25936;SDS011;13733;51.178;4.450;2022-07-29T09:08:31;3.78;;;2.30;;
25936;SDS011;13733;51.178;4.450;2022-07-29T09:10:58;6.70;;;2.78;;
25936;SDS011;13733;51.178;4.450;2022-07-29T09:13:26;6.95;;;2.50;;
25936;SDS011;13733;51.178;4.450;2022-07-29T09:15:52;11.43;;;2.70;;
25936;SDS011;13733;51.178;4.450;2022-07-29T09:21:03;6.32;;;2.20;;
25936;SDS011;13733;51.178;4.450;2022-07-29T09:26:37;5.47;;;1.95;;
25936;SDS011;13733;51.178;4.450;2022-07-29T09:29:23;6.25;;;2.25;;
25936;SDS011;13733;51.178;4.450;2022-07-29T09:31:50;5.78;;;2.50;;
25936;SDS011;13733;51.178;4.450;2022-07-29T09:34:25;7.72;;;2.08;;
25936;SDS011;13733;51.178;4.450;2022-07-29T09:36:53;5.97;;;2.20;;
25936;SDS011;13733;51.178;4.450;2022-07-29T09:39:30;6.15;;;2.70;;
25936;SDS011;13733;51.178;4.450;2022-07-29T09:42:03;6.30;;;2.42;;
25936;SDS011;13733;51.178;4.450;2022-07-29T09:44:43;8.68;;;2.30;;
25936;SDS011;13733;51.178;4.450;2022-07-29T09:47:13;4.53;;;1.88;;
25936;SDS011;13733;51.178;4.450;2022-07-29T09:49:53;6.75;;;2.10;;
25936;SDS011;13733;51.178;4.450;2022-07-29T09:52:27;5.90;;;2.30;;
25936;SDS011;13733;51.178;4.450;2022-07-29T09:57:38;5.47;;;2.08;;
25936;SDS011;13733;51.178;4.450;2022-07-29T10:00:05;6.65;;;2.28;;
25936;SDS011;13733;51.178;4.450;2022-07-29T10:02:40;6.95;;;1.80;;
25936;SDS011;13733;51.178;4.450;2022-07-29T10:05:22;4.40;;;2.05;;
25936;SDS011;13733;51.178;4.450;2022-07-29T10:07:54;5.45;;;1.95;;
25936;SDS011;13733;51.178;4.450;2022-07-29T10:10:22;6.32;;;1.83;;
25936;SDS011;13733;51.178;4.450;2022-07-29T10:15:18;3.45;;;1.83;;
25936;SDS011;13733;51.178;4.450;2022-07-29T10:17:49;3.55;;;1.67;;
25936;SDS011;13733;51.178;4.450;2022-07-29T10:20:16;5.88;;;1.80;;
25936;SDS011;13733;51.178;4.450;2022-07-29T10:22:43;4.47;;;1.88;;
25936;SDS011;13733;51.178;4.450;2022-07-29T10:25:09;3.15;;;1.80;;
25936;SDS011;13733;51.178;4.450;2022-07-29T10:27:36;4.38;;;2.00;;
25936;SDS011;13733;51.178;4.450;2022-07-29T10:30:03;4.30;;;1.90;;
25936;SDS011;13733;51.178;4.450;2022-07-29T10:41:23;5.45;;;1.75;;
25936;SDS011;13733;51.178;4.450;2022-07-29T10:44:12;11.65;;;2.22;;
25936;SDS011;13733;51.178;4.450;2022-07-29T10:46:44;7.25;;;2.20;;
25936;SDS011;13733;51.178;4.450;2022-07-29T10:49:14;7.00;;;2.33;;
25936;SDS011;13733;51.178;4.450;2022-07-29T10:51:56;5.13;;;2.15;;
25936;SDS011;13733;51.178;4.450;2022-07-29T10:59:48;11.95;;;2.58;;
25936;SDS011;13733;51.178;4.450;2022-07-29T11:07:26;6.00;;;2.00;;
25936;SDS011;13733;51.178;4.450;2022-07-29T11:15:05;6.47;;;2.75;;
25936;SDS011;13733;51.178;4.450;2022-07-29T11:20:31;5.43;;;2.75;;
25936;SDS011;13733;51.178;4.450;2022-07-29T11:23:01;7.32;;;2.50;;
25936;SDS011;13733;51.178;4.450;2022-07-29T11:25:42;5.13;;;2.35;;
25936;SDS011;13733;51.178;4.450;2022-07-29T11:28:16;4.78;;;2.38;;
25936;SDS011;13733;51.178;4.450;2022-07-29T11:30:52;8.48;;;2.45;;
25936;SDS011;13733;51.178;4.450;2022-07-29T11:33:31;6.13;;;2.10;;
25936;SDS011;13733;51.178;4.450;2022-07-29T11:38:35;7.75;;;2.58;;
25936;SDS011;13733;51.178;4.450;2022-07-29T11:44:15;7.80;;;2.25;;
25936;SDS011;13733;51.178;4.450;2022-07-29T11:46:47;9.48;;;2.33;;
25936;SDS011;13733;51.178;4.450;2022-07-29T11:49:25;6.75;;;2.60;;
25936;SDS011;13733;51.178;4.450;2022-07-29T11:51:52;4.88;;;2.22;;
25936;SDS011;13733;51.178;4.450;2022-07-29T11:54:24;6.25;;;2.38;;
25936;SDS011;13733;51.178;4.450;2022-07-29T11:56:55;7.72;;;2.70;;
25936;SDS011;13733;51.178;4.450;2022-07-29T11:59:23;6.43;;;2.53;;
25936;SDS011;13733;51.178;4.450;2022-07-29T12:01:57;9.63;;;3.40;;
25936;SDS011;13733;51.178;4.450;2022-07-29T12:04:23;7.60;;;2.75;;
25936;SDS011;13733;51.178;4.450;2022-07-29T12:06:52;7.88;;;3.28;;
25936;SDS011;13733;51.178;4.450;2022-07-29T12:09:19;6.63;;;3.20;;
25936;SDS011;13733;51.178;4.450;2022-07-29T12:11:46;6.60;;;3.30;;
25936;SDS011;13733;51.178;4.450;2022-07-29T12:14:32;8.32;;;2.90;;
25936;SDS011;13733;51.178;4.450;2022-07-29T12:16:59;5.55;;;2.55;;
25936;SDS011;13733;51.178;4.450;2022-07-29T12:19:50;9.88;;;2.65;;
25936;SDS011;13733;51.178;4.450;2022-07-29T12:22:26;5.38;;;2.75;;
25936;SDS011;13733;51.178;4.450;2022-07-29T12:25:05;11.20;;;3.35;;
25936;SDS011;13733;51.178;4.450;2022-07-29T12:27:36;7.20;;;3.38;;
25936;SDS011;13733;51.178;4.450;2022-07-29T12:30:04;10.70;;;3.10;;
25936;SDS011;13733;51.178;4.450;2022-07-29T12:32:35;7.97;;;2.60;;
25936;SDS011;13733;51.178;4.450;2022-07-29T12:35:04;12.63;;;3.60;;
25936;SDS011;13733;51.178;4.450;2022-07-29T12:37:34;14.00;;;3.70;;
25936;SDS011;13733;51.178;4.450;2022-07-29T12:40:05;10.82;;;3.38;;
25936;SDS011;13733;51.178;4.450;2022-07-29T12:42:32;7.32;;;3.00;;
25936;SDS011;13733;51.178;4.450;2022-07-29T12:44:58;7.07;;;3.72;;
25936;SDS011;13733;51.178;4.450;2022-07-29T12:47:24;10.32;;;2.88;;
25936;SDS011;13733;51.178;4.450;2022-07-29T12:49:50;8.02;;;3.42;;
25936;SDS011;13733;51.178;4.450;2022-07-29T12:52:35;9.60;;;3.33;;
25936;SDS011;13733;51.178;4.450;2022-07-29T12:55:01;10.45;;;3.85;;
25936;SDS011;13733;51.178;4.450;2022-07-29T12:57:27;5.22;;;3.92;;
25936;SDS011;13733;51.178;4.450;2022-07-29T13:00:00;17.98;;;3.97;;
25936;SDS011;13733;51.178;4.450;2022-07-29T13:02:27;6.63;;;3.20;;
25936;SDS011;13733;51.178;4.450;2022-07-29T13:04:57;11.85;;;2.90;;
25936;SDS011;13733;51.178;4.450;2022-07-29T13:09:50;8.88;;;2.75;;
25936;SDS011;13733;51.178;4.450;2022-07-29T13:12:16;6.75;;;2.92;;
25936;SDS011;13733;51.178;4.450;2022-07-29T13:14:45;8.02;;;2.53;;
25936;SDS011;13733;51.178;4.450;2022-07-29T13:17:16;8.30;;;2.90;;
25936;SDS011;13733;51.178;4.450;2022-07-29T13:19:50;8.20;;;3.17;;
25936;SDS011;13733;51.178;4.450;2022-07-29T13:22:18;7.72;;;3.03;;
25936;SDS011;13733;51.178;4.450;2022-07-29T13:27:17;6.20;;;2.85;;
25936;SDS011;13733;51.178;4.450;2022-07-29T13:29:45;9.98;;;3.00;;
25936;SDS011;13733;51.178;4.450;2022-07-29T13:32:12;6.75;;;3.25;;
25936;SDS011;13733;51.178;4.450;2022-07-29T13:34:38;6.50;;;2.75;;
25936;SDS011;13733;51.178;4.450;2022-07-29T13:37:04;9.73;;;2.63;;
25936;SDS011;13733;51.178;4.450;2022-07-29T13:39:30;7.70;;;3.15;;
25936;SDS011;13733;51.178;4.450;2022-07-29T13:41:56;9.70;;;3.42;;
25936;SDS011;13733;51.178;4.450;2022-07-29T13:44:22;8.45;;;3.20;;
25936;SDS011;13733;51.178;4.450;2022-07-29T13:46:47;8.27;;;2.80;;
25936;SDS011;13733;51.178;4.450;2022-07-29T13:49:13;10.75;;;3.45;;
25936;SDS011;13733;51.178;4.450;2022-07-29T13:51:41;8.93;;;2.75;;
25936;SDS011;13733;51.178;4.450;2022-07-29T13:54:07;9.27;;;3.25;;
25936;SDS011;13733;51.178;4.450;2022-07-29T13:56:33;8.00;;;3.17;;
25936;SDS011;13733;51.178;4.450;2022-07-29T13:58:59;13.20;;;4.07;;
25936;SDS011;13733;51.178;4.450;2022-07-29T14:01:25;7.03;;;3.15;;
25936;SDS011;13733;51.178;4.450;2022-07-29T14:03:52;12.30;;;2.78;;
25936;SDS011;13733;51.178;4.450;2022-07-29T14:06:17;6.88;;;2.60;;
25936;SDS011;13733;51.178;4.450;2022-07-29T14:08:44;7.57;;;2.95;;
25936;SDS011;13733;51.178;4.450;2022-07-29T14:11:10;11.10;;;2.67;;
25936;SDS011;13733;51.178;4.450;2022-07-29T14:13:35;8.00;;;2.67;;
25936;SDS011;13733;51.178;4.450;2022-07-29T14:16:01;7.07;;;2.13;;
25936;SDS011;13733;51.178;4.450;2022-07-29T14:18:27;8.82;;;2.90;;
25936;SDS011;13733;51.178;4.450;2022-07-29T14:20:53;9.18;;;2.55;;
25936;SDS011;13733;51.178;4.450;2022-07-29T14:23:19;9.88;;;2.88;;
25936;SDS011;13733;51.178;4.450;2022-07-29T14:25:44;8.10;;;3.55;;
25936;SDS011;13733;51.178;4.450;2022-07-29T14:28:11;9.05;;;2.88;;
25936;SDS011;13733;51.178;4.450;2022-07-29T14:30:37;10.00;;;2.75;;
25936;SDS011;13733;51.178;4.450;2022-07-29T14:33:02;9.65;;;2.80;;
25936;SDS011;13733;51.178;4.450;2022-07-29T14:35:28;9.38;;;3.58;;
25936;SDS011;13733;51.178;4.450;2022-07-29T14:37:54;17.52;;;3.72;;
25936;SDS011;13733;51.178;4.450;2022-07-29T14:40:20;5.38;;;2.60;;
25936;SDS011;13733;51.178;4.450;2022-07-29T14:42:45;7.35;;;2.70;;
25936;SDS011;13733;51.178;4.450;2022-07-29T14:45:11;9.68;;;3.05;;
25936;SDS011;13733;51.178;4.450;2022-07-29T14:47:38;17.88;;;3.75;;
25936;SDS011;13733;51.178;4.450;2022-07-29T14:50:05;9.65;;;2.50;;
25936;SDS011;13733;51.178;4.450;2022-07-29T14:52:31;6.97;;;2.63;;
25936;SDS011;13733;51.178;4.450;2022-07-29T14:54:57;7.10;;;2.83;;
25936;SDS011;13733;51.178;4.450;2022-07-29T14:57:23;8.82;;;3.10;;
25936;SDS011;13733;51.178;4.450;2022-07-29T14:59:49;7.03;;;2.83;;
25936;SDS011;13733;51.178;4.450;2022-07-29T15:02:15;9.13;;;2.80;;
25936;SDS011;13733;51.178;4.450;2022-07-29T15:04:41;7.90;;;2.40;;
25936;SDS011;13733;51.178;4.450;2022-07-29T15:07:07;9.52;;;2.53;;
25936;SDS011;13733;51.178;4.450;2022-07-29T15:09:33;9.57;;;3.35;;
25936;SDS011;13733;51.178;4.450;2022-07-29T15:11:59;9.13;;;3.20;;
25936;SDS011;13733;51.178;4.450;2022-07-29T15:14:25;9.70;;;2.60;;
25936;SDS011;13733;51.178;4.450;2022-07-29T15:16:53;6.50;;;2.10;;
25936;SDS011;13733;51.178;4.450;2022-07-29T15:19:19;10.23;;;3.25;;
25936;SDS011;13733;51.178;4.450;2022-07-29T15:21:44;11.35;;;3.30;;
25936;SDS011;13733;51.178;4.450;2022-07-29T15:24:10;9.23;;;2.50;;
25936;SDS011;13733;51.178;4.450;2022-07-29T15:26:36;6.53;;;2.53;;
25936;SDS011;13733;51.178;4.450;2022-07-29T15:29:02;8.65;;;2.60;;
25936;SDS011;13733;51.178;4.450;2022-07-29T15:31:28;10.13;;;3.88;;
25936;SDS011;13733;51.178;4.450;2022-07-29T15:33:54;9.15;;;3.28;;
25936;SDS011;13733;51.178;4.450;2022-07-29T15:36:20;10.50;;;3.83;;
25936;SDS011;13733;51.178;4.450;2022-07-29T15:38:46;8.70;;;2.90;;
25936;SDS011;13733;51.178;4.450;2022-07-29T15:41:13;11.55;;;3.72;;
25936;SDS011;13733;51.178;4.450;2022-07-29T15:43:46;8.32;;;2.90;;
25936;SDS011;13733;51.178;4.450;2022-07-29T15:46:14;7.05;;;3.60;;
25936;SDS011;13733;51.178;4.450;2022-07-29T15:48:59;9.00;;;2.90;;
25936;SDS011;13733;51.178;4.450;2022-07-29T15:51:27;9.65;;;3.00;;
25936;SDS011;13733;51.178;4.450;2022-07-29T15:53:53;7.18;;;2.60;;
25936;SDS011;13733;51.178;4.450;2022-07-29T15:56:18;8.32;;;2.58;;
25936;SDS011;13733;51.178;4.450;2022-07-29T15:58:45;6.47;;;2.80;;
25936;SDS011;13733;51.178;4.450;2022-07-29T16:01:11;10.95;;;3.00;;
25936;SDS011;13733;51.178;4.450;2022-07-29T16:03:37;7.47;;;3.28;;
25936;SDS011;13733;51.178;4.450;2022-07-29T16:06:03;10.23;;;3.33;;
25936;SDS011;13733;51.178;4.450;2022-07-29T16:08:29;5.13;;;2.50;;
25936;SDS011;13733;51.178;4.450;2022-07-29T16:10:55;9.13;;;2.90;;